Ray, ND (58849)

9:56 AM CDT on October 23, 2014 (GMT -0500)
Tioga Municipal Airport | Change Station
CLOSE
Current Station
Airport
Location: Tioga Municipal Airport,
Elevation: 2270 ft
Nearby Weather Stations

Elev 2270 ft 48.38 °N, 102.90 °W | Updated 21 minutes ago

Clear
Clear
37 °F
Feels Like 37 °F
N
0
Wind Variable Wind from North

Today
High -- | Low -- °F
--% Chance of Precip.
Yesterday
High -- | Low -- °F
Precip. -- in
8:24 AM 6:48 PM
Waning Crescent, 0% visible
Pressure 29.87 in
Visibility 10.0 miles
Clouds Clear
Dew Point 37 °F
Humidity 100%
Rainfall 0.00 in
Snow Depth Not available.
UV 1 out of 12
Pollen 1.60 out of 12
Air Quality Not available.
Flu Activity Local Activity
METAR KD60 231435Z AUTO 00000KT 10SM CLR 03/03 A2987 RMK AO2

More Conditions Fewer Conditions

Pressure 29.87 in
Visibility 10.0 miles
Clouds Clear
Dew Point 37 °F
Humidity 100%
Rainfall 0.00 in
Snow Depth Not available.
UV 1 out of 12
Pollen 1.60 out of 12
Air Quality Not available.
Flu Activity Local Activity
METAR KD60 231435Z AUTO 00000KT 10SM CLR 03/03 A2987 RMK AO2

More Conditions Fewer Conditions

10-Day Weather Forecast

Almanac

Astronomy

Oct. 23, 2014 Rise Set
Actual Time 8:24 AM CDT 6:48 PM CDT
Civil Twilight 7:52 AM CDT 7:20 PM CDT
Nautical Twilight 7:16 AM CDT 7:57 PM CDT
Astronomical Twilight 6:40 AM CDT 8:33 PM CDT
Moon 8:05 AM CDT 6:51 PM CDT
Length of Visible Light 11h 28m
Length of Day
10h 24m
Tomorrow will be 3m 19s shorter.
Waning Crescent, 0% of the Moon is Illuminated
Today
Waning Crescent
Oct 23
New
Oct 30
First Quarter
Nov 6
Full
Nov 14
Last Quarter

Today's Extremes

State Highs State Lows

Community

WunderPhotos

Upload Photos

1,764,272 photos uploaded!

WunderBlogs® & News

Nearby

Snow Depth

Station Depth Elevation
No new snow has been reported.

Earthquake Activity

City Distance Mag. Time & Date
No recent earthquake activity has been reported nearby.
Minimum magnitude displayed is 2.5.

Coastal Water Temperatures

Place Temperature
No Stations Reporting

Nearby Weather Stations